Southport, United Kingdom
Current Conditions -  °F | °C
As of 6:50 PM on Thursday 20 Nov 2014 (Local Time) from EGNO Reporting Station
Few Clouds Few Clouds  
Wind Chill: 42°   Ceiling: Unl
Heat Index: 45°   Visibility: 4mi
Dew Point: 41°   Wind: 5mph
Humidity: 87%   Direction: 70°ENE
Pressure: 30.27"   Gusts: NA
Location:  53.65°N, 3.01°W
Report Text: EGNO 201850Z 07004KT 6000 FEW025 07/05 Q1025
Loading
Personal Weather Stations






























Interactive Weather Map New forecast layout! Learn more

10-Day Weather Forecast

Advertisements
Track Severe Weather on mobile